Wetterdaten: Woche 06.10.14 - 12.10.14 (KW41)
Datum Zeit Temp. A. Feuchte A. Luftdruck Regen Wind Richtung Taupunkt Windchill Windben
06.10.2014 00:00 7,9 C 85 % 1018,5 hPa 0,0 l/m 0,1 km/h N 5,5 C 7,9 C 1,2 km/h
06.10.2014 01:00 7,4 C 85 % 1018,4 hPa 0,0 l/m 0,0 km/h N 5,0 C 7,4 C 0,0 km/h
06.10.2014 02:00 6,9 C 84 % 1018,3 hPa 0,0 l/m 0,0 km/h N 4,4 C 6,9 C 0,0 km/h
06.10.2014 03:00 6,5 C 84 % 1018,0 hPa 0,0 l/m 0,0 km/h N 4,0 C 6,5 C 0,0 km/h
06.10.2014 04:00 6,3 C 83 % 1017,8 hPa 0,0 l/m 0,0 km/h N 3,7 C 6,3 C 0,0 km/h
06.10.2014 05:00 6,3 C 83 % 1017,8 hPa 0,0 l/m 0,0 km/h N 3,7 C 6,3 C 0,0 km/h
06.10.2014 06:00 6,0 C 83 % 1017,9 hPa 0,0 l/m 0,0 km/h N 3,4 C 6,0 C 0,0 km/h
06.10.2014 07:00 6,0 C 82 % 1018,0 hPa 0,0 l/m 0,0 km/h N 3,2 C 6,0 C 0,0 km/h
06.10.2014 08:00 7,5 C 80 % 1018,1 hPa 0,0 l/m 0,0 km/h N 4,2 C 7,5 C 0,0 km/h
06.10.2014 09:00 10,8 C 79 % 1017,8 hPa 0,0 l/m 2,8 km/h N 7,3 C 10,8 C 9,3 km/h
06.10.2014 10:00 14,0 C 81 % 1017,6 hPa 0,0 l/m 4,1 km/h N 10,7 C 14,0 C 13,3 km/h
06.10.2014 11:00 16,0 C 72 % 1017,3 hPa 0,0 l/m 5,3 km/h N 11,0 C 16,0 C 19,3 km/h
06.10.2014 12:00 17,1 C 69 % 1016,8 hPa 0,0 l/m 6,5 km/h N 11,3 C 16,8 C 18,9 km/h
06.10.2014 13:00 17,9 C 65 % 1016,3 hPa 0,0 l/m 5,2 km/h N 11,3 C 17,9 C 16,9 km/h
06.10.2014 14:00 17,8 C 66 % 1015,6 hPa 0,0 l/m 6,5 km/h N 11,2 C 17,6 C 20,5 km/h
06.10.2014 15:00 17,4 C 66 % 1015,2 hPa 0,0 l/m 7,1 km/h N 10,9 C 17,0 C 20,1 km/h
06.10.2014 16:00 17,0 C 67 % 1015,1 hPa 0,0 l/m 7,6 km/h N 10,8 C 16,4 C 22,1 km/h
06.10.2014 17:00 16,5 C 69 % 1015,1 hPa 0,0 l/m 7,1 km/h N 10,7 C 16,0 C 19,7 km/h
06.10.2014 18:00 15,5 C 72 % 1015,3 hPa 0,0 l/m 5,4 km/h N 10,5 C 15,4 C 14,9 km/h
06.10.2014 19:00 14,6 C 75 % 1015,5 hPa 0,0 l/m 4,2 km/h N 10,2 C 14,6 C 16,9 km/h
06.10.2014 20:00 14,0 C 78 % 1015,6 hPa 0,0 l/m 3,4 km/h N 10,2 C 14,0 C 12,5 km/h
06.10.2014 21:00 13,8 C 79 % 1015,5 hPa 0,0 l/m 4,0 km/h N 10,2 C 13,8 C 15,3 km/h
06.10.2014 22:00 13,2 C 79 % 1015,3 hPa 0,0 l/m 0,6 km/h N 9,7 C 13,2 C 6,4 km/h
06.10.2014 23:00 11,6 C 82 % 1015,2 hPa 0,0 l/m 0,2 km/h N 8,6 C 11,6 C 3,6 km/h
07.10.2014 00:00 11,2 C 85 % 1014,9 hPa 0,0 l/m 0,5 km/h N 8,7 C 11,2 C 4,8 km/h
07.10.2014 01:00 10,5 C 85 % 1014,6 hPa 0,0 l/m 0,0 km/h N 8,1 C 10,5 C 1,2 km/h
07.10.2014 02:00 11,1 C 84 % 1014,4 hPa 0,0 l/m 0,9 km/h N 8,6 C 11,1 C 5,6 km/h
07.10.2014 03:00 10,4 C 85 % 1014,4 hPa 0,0 l/m 0,0 km/h N 7,9 C 10,4 C 0,8 km/h
07.10.2014 04:00 11,0 C 84 % 1014,3 hPa 0,0 l/m 1,7 km/h N 8,3 C 11,0 C 10,1 km/h
07.10.2014 05:00 11,5 C 85 % 1014,1 hPa 0,0 l/m 3,1 km/h N 9,0 C 11,5 C 11,7 km/h
07.10.2014 06:00 11,0 C 85 % 1014,5 hPa 0,0 l/m 1,5 km/h N 8,6 C 11,0 C 8,8 km/h
07.10.2014 07:00 10,7 C 85 % 1014,7 hPa 0,0 l/m 0,0 km/h N 8,3 C 10,7 C 1,2 km/h
07.10.2014 08:00 10,9 C 85 % 1014,9 hPa 0,0 l/m 1,9 km/h N 8,4 C 10,9 C 7,3 km/h
07.10.2014 09:00 12,7 C 83 % 1014,9 hPa 0,0 l/m 4,9 km/h N 10,0 C 12,7 C 15,3 km/h
07.10.2014 10:00 14,5 C 79 % 1015,0 hPa 0,0 l/m 5,1 km/h N 10,8 C 14,5 C 15,7 km/h
07.10.2014 11:00 14,8 C 78 % 1014,9 hPa 0,0 l/m 8,8 km/h N 11,0 C 13,5 C 25,3 km/h
07.10.2014 12:00 15,0 C 78 % 1014,8 hPa 0,0 l/m 8,6 km/h N 11,1 C 13,8 C 27,8 km/h
07.10.2014 13:00 15,0 C 78 % 1014,7 hPa 0,0 l/m 10,3 km/h N 11,1 C 13,0 C 26,2 km/h
07.10.2014 14:00 15,1 C 78 % 1014,6 hPa 0,0 l/m 9,0 km/h N 11,2 C 13,8 C 24,5 km/h
07.10.2014 15:00 15,6 C 77 % 1014,3 hPa 0,0 l/m 9,7 km/h N 11,6 C 13,9 C 24,5 km/h
07.10.2014 16:00 15,3 C 79 % 1014,3 hPa 0,0 l/m 7,9 km/h N 11,7 C 14,5 C 23,7 km/h
07.10.2014 17:00 15,2 C 81 % 1014,6 hPa 0,0 l/m 4,8 km/h N 11,8 C 15,2 C 18,1 km/h
07.10.2014 18:00 14,8 C 82 % 1014,9 hPa 0,0 l/m 2,3 km/h N 11,8 C 14,8 C 10,9 km/h
07.10.2014 19:00 14,4 C 84 % 1015,2 hPa 0,0 l/m 1,1 km/h N 11,6 C 14,4 C 7,2 km/h
07.10.2014 20:00 14,0 C 85 % 1015,3 hPa 0,0 l/m 0,3 km/h N 11,4 C 14,0 C 5,2 km/h
07.10.2014 21:00 13,4 C 85 % 1015,4 hPa 0,0 l/m 0,1 km/h N 11,0 C 13,4 C 1,2 km/h
07.10.2014 22:00 12,9 C 85 % 1015,3 hPa 0,0 l/m 0,0 km/h N 10,5 C 12,9 C 0,0 km/h
07.10.2014 23:00 12,0 C 85 % 1015,2 hPa 0,0 l/m 0,0 km/h N 9,6 C 12,0 C 0,0 km/h
08.10.2014 00:00 11,3 C 85 % 1015,2 hPa 0,0 l/m 0,0 km/h N 8,8 C 11,3 C 0,0 km/h
08.10.2014 01:00 11,7 C 83 % 1015,2 hPa 0,0 l/m 0,1 km/h N 9,0 C 11,7 C 0,8 km/h
08.10.2014 02:00 12,8 C 82 % 1014,9 hPa 0,0 l/m 0,1 km/h N 9,8 C 12,8 C 2,0 km/h
08.10.2014 03:00 13,0 C 81 % 1014,8 hPa 0,0 l/m 0,3 km/h N 9,8 C 13,0 C 4,0 km/h
08.10.2014 04:00 13,1 C 81 % 1015,1 hPa 0,0 l/m 0,1 km/h N 9,9 C 13,1 C 2,4 km/h
08.10.2014 05:00 13,0 C 81 % 1015,8 hPa 0,0 l/m 0,1 km/h N 9,8 C 13,0 C 2,0 km/h
08.10.2014 06:00 12,9 C 81 % 1016,2 hPa 0,0 l/m 0,1 km/h N 9,7 C 12,9 C 0,8 km/h
08.10.2014 07:00 12,9 C 81 % 1016,6 hPa 0,0 l/m 0,2 km/h N 9,7 C 12,9 C 2,8 km/h
08.10.2014 08:00 13,2 C 80 % 1017,1 hPa 0,0 l/m 0,2 km/h N 9,9 C 13,2 C 1,2 km/h
08.10.2014 09:00 13,6 C 81 % 1017,3 hPa 0,0 l/m 0,3 km/h N 10,4 C 13,6 C 2,8 km/h
08.10.2014 10:00 14,8 C 84 % 1017,3 hPa 0,0 l/m 0,6 km/h N 12,1 C 14,8 C 4,8 km/h
08.10.2014 11:00 16,0 C 82 % 1017,3 hPa 0,0 l/m 2,0 km/h N 12,9 C 16,0 C 8,8 km/h
08.10.2014 12:00 17,3 C 76 % 1016,8 hPa 0,0 l/m 3,2 km/h N 12,9 C 17,3 C 12,1 km/h
08.10.2014 13:00 16,6 C 77 % 1016,2 hPa 0,0 l/m 2,4 km/h N 12,5 C 16,6 C 11,3 km/h
08.10.2014 14:00 16,9 C 78 % 1015,2 hPa 0,0 l/m 2,4 km/h N 12,9 C 16,9 C 11,3 km/h
08.10.2014 15:00 18,0 C 78 % 1014,3 hPa 0,0 l/m 1,6 km/h N 14,1 C 18,0 C 11,3 km/h
08.10.2014 16:00 19,6 C 77 % 1013,0 hPa 0,0 l/m 3,0 km/h N 15,5 C 19,6 C 12,3 km/h
08.10.2014 17:00 20,5 C 74 % 1012,7 hPa 0,0 l/m 4,7 km/h N 15,6 C 20,4 C 18,9 km/h
08.10.2014 18:00 19,5 C 77 % 1012,7 hPa 0,0 l/m 0,8 km/h N 15,4 C 19,5 C 6,4 km/h
08.10.2014 19:00 18,0 C 81 % 1013,1 hPa 0,0 l/m 0,0 km/h N 14,7 C 18,0 C 1,2 km/h
08.10.2014 20:00 16,6 C 83 % 1013,3 hPa 0,0 l/m 0,0 km/h N 13,7 C 16,6 C 0,4 km/h
08.10.2014 21:00 15,0 C 84 % 1013,5 hPa 0,0 l/m 0,0 km/h N 12,3 C 15,0 C 0,0 km/h
08.10.2014 22:00 13,7 C 85 % 1013,6 hPa 0,0 l/m 0,0 km/h N 11,2 C 13,7 C 0,0 km/h
08.10.2014 23:00 12,6 C 85 % 1013,6 hPa 0,0 l/m 0,0 km/h N 10,1 C 12,6 C 0,0 km/h
09.10.2014 00:00 11,9 C 84 % 1013,5 hPa 0,0 l/m 0,0 km/h N 9,3 C 11,9 C 0,0 km/h
09.10.2014 01:00 11,2 C 84 % 1013,6 hPa 0,0 l/m 0,0 km/h N 8,6 C 11,2 C 0,0 km/h
09.10.2014 02:00 11,0 C 83 % 1013,3 hPa 0,0 l/m 0,0 km/h N 8,2 C 11,0 C 0,0 km/h
09.10.2014 03:00 12,4 C 81 % 1013,0 hPa 0,0 l/m 0,0 km/h N 9,2 C 12,4 C 0,0 km/h
09.10.2014 04:00 13,3 C 80 % 1012,7 hPa 0,0 l/m 0,0 km/h N 9,9 C 13,3 C 0,0 km/h
09.10.2014 05:00 13,7 C 80 % 1012,6 hPa 0,0 l/m 0,0 km/h N 10,3 C 13,7 C 0,0 km/h
09.10.2014 06:00 13,7 C 80 % 1012,6 hPa 0,3 l/m 0,0 km/h N 10,3 C 13,7 C 0,4 km/h
09.10.2014 07:00 13,7 C 79 % 1012,8 hPa 0,0 l/m 0,0 km/h N 10,1 C 13,7 C 0,0 km/h
09.10.2014 08:00 14,0 C 79 % 1013,2 hPa 0,0 l/m 0,1 km/h N 10,4 C 14,0 C 2,8 km/h
09.10.2014 09:00 14,1 C 79 % 1013,9 hPa 0,0 l/m 0,3 km/h N 10,5 C 14,1 C 2,4 km/h
09.10.2014 10:00 14,2 C 79 % 1014,3 hPa 0,0 l/m 0,3 km/h N 10,5 C 14,2 C 2,8 km/h
09.10.2014 11:00 14,4 C 78 % 1014,6 hPa 0,0 l/m 0,2 km/h N 10,7 C 14,4 C 3,2 km/h
09.10.2014 12:00 15,6 C 78 % 1014,5 hPa 0,0 l/m 0,3 km/h N 11,8 C 15,6 C 3,6 km/h
09.10.2014 13:00 16,9 C 83 % 1014,0 hPa 0,0 l/m 1,3 km/h N 14,0 C 16,9 C 6,4 km/h
09.10.2014 14:00 18,3 C 82 % 1013,4 hPa 0,0 l/m 0,8 km/h N 15,1 C 18,3 C 6,4 km/h
09.10.2014 15:00 19,9 C 79 % 1012,7 hPa 0,0 l/m 0,2 km/h N 16,0 C 19,9 C 3,2 km/h
09.10.2014 16:00 21,1 C 75 % 1012,1 hPa 0,0 l/m 0,0 km/h N 16,6 C 21,1 C 1,6 km/h
09.10.2014 17:00 21,1 C 76 % 1011,8 hPa 0,0 l/m 0,0 km/h N 16,7 C 21,1 C 0,4 km/h
09.10.2014 18:00 19,5 C 81 % 1011,6 hPa 0,0 l/m 0,1 km/h N 16,0 C 19,5 C 0,8 km/h
09.10.2014 19:00 17,5 C 83 % 1011,8 hPa 0,3 l/m 0,0 km/h N 14,5 C 17,5 C 0,4 km/h
09.10.2014 20:00 16,2 C 84 % 1012,1 hPa 0,0 l/m 0,1 km/h N 13,5 C 16,2 C 1,2 km/h
09.10.2014 21:00 15,1 C 84 % 1012,2 hPa 0,0 l/m 0,0 km/h N 12,4 C 15,1 C 0,0 km/h
09.10.2014 22:00 14,2 C 84 % 1012,5 hPa 0,0 l/m 0,0 km/h N 11,5 C 14,2 C 0,0 km/h
09.10.2014 23:00 13,3 C 83 % 1012,6 hPa 0,0 l/m 0,0 km/h N 10,5 C 13,3 C 0,0 km/h
10.10.2014 00:00 13,0 C 82 % 1012,7 hPa 0,0 l/m 0,1 km/h N 10,0 C 13,0 C 1,2 km/h
10.10.2014 01:00 12,8 C 81 % 1012,9 hPa 0,0 l/m 0,2 km/h N 9,6 C 12,8 C 2,8 km/h
10.10.2014 02:00 11,9 C 82 % 1013,1 hPa 0,0 l/m 0,0 km/h N 8,8 C 11,9 C 0,0 km/h
10.10.2014 03:00 11,5 C 81 % 1013,3 hPa 0,0 l/m 0,0 km/h N 8,2 C 11,5 C 0,4 km/h
10.10.2014 04:00 11,4 C 81 % 1013,8 hPa 0,0 l/m 0,0 km/h N 8,2 C 11,4 C 0,4 km/h
10.10.2014 05:00 11,0 C 81 % 1014,2 hPa 0,0 l/m 0,0 km/h N 7,8 C 11,0 C 0,0 km/h
10.10.2014 06:00 12,0 C 79 % 1014,7 hPa 0,0 l/m 0,1 km/h N 8,4 C 12,0 C 0,8 km/h
10.10.2014 07:00 12,9 C 78 % 1015,3 hPa 0,0 l/m 0,0 km/h N 9,2 C 12,9 C 0,4 km/h
10.10.2014 08:00 13,4 C 78 % 1016,0 hPa 0,0 l/m 0,2 km/h N 9,5 C 13,4 C 1,6 km/h
10.10.2014 09:00 14,6 C 77 % 1016,7 hPa 0,0 l/m 0,1 km/h N 10,5 C 14,6 C 0,8 km/h
10.10.2014 10:00 15,1 C 77 % 1017,1 hPa 0,0 l/m 0,2 km/h N 11,1 C 15,1 C 2,4 km/h
10.10.2014 11:00 15,3 C 78 % 1017,4 hPa 0,0 l/m 1,1 km/h N 11,5 C 15,3 C 6,0 km/h
10.10.2014 12:00 17,6 C 82 % 1017,1 hPa 0,3 l/m 0,7 km/h N 14,6 C 17,6 C 5,2 km/h
10.10.2014 13:00 20,1 C 75 % 1016,7 hPa 0,0 l/m 1,7 km/h N 15,5 C 20,1 C 8,4 km/h
10.10.2014 14:00 20,0 C 76 % 1016,6 hPa 0,0 l/m 0,9 km/h N 15,5 C 20,0 C 6,4 km/h
10.10.2014 15:00 19,8 C 76 % 1016,5 hPa 0,0 l/m 1,1 km/h N 15,4 C 19,8 C 6,0 km/h
10.10.2014 16:00 19,8 C 76 % 1016,4 hPa 0,0 l/m 0,1 km/h N 15,4 C 19,8 C 3,6 km/h
10.10.2014 17:00 19,6 C 77 % 1016,4 hPa 0,0 l/m 0,0 km/h N 15,5 C 19,6 C 0,8 km/h
10.10.2014 18:00 18,2 C 79 % 1016,4 hPa 0,0 l/m 0,0 km/h N 14,4 C 18,2 C 0,0 km/h
10.10.2014 19:00 16,6 C 83 % 1016,7 hPa 0,0 l/m 0,2 km/h N 13,7 C 16,6 C 2,0 km/h
10.10.2014 20:00 15,3 C 84 % 1017,0 hPa 0,0 l/m 0,0 km/h N 12,6 C 15,3 C 0,4 km/h
10.10.2014 21:00 14,2 C 85 % 1016,9 hPa 0,0 l/m 0,0 km/h N 11,6 C 14,2 C 0,0 km/h
10.10.2014 22:00 13,5 C 84 % 1016,9 hPa 0,0 l/m 0,0 km/h N 10,9 C 13,5 C 0,0 km/h
10.10.2014 23:00 13,1 C 84 % 1016,6 hPa 0,0 l/m 0,0 km/h N 10,4 C 13,1 C 0,0 km/h
11.10.2014 00:00 12,4 C 83 % 1015,9 hPa 0,0 l/m 0,0 km/h N 9,5 C 12,4 C 0,0 km/h
11.10.2014 01:00 11,9 C 83 % 1015,5 hPa 0,0 l/m 0,0 km/h N 9,1 C 11,9 C 0,0 km/h
11.10.2014 02:00 11,4 C 83 % 1015,2 hPa 0,0 l/m 0,0 km/h N 8,5 C 11,4 C 0,0 km/h
11.10.2014 03:00 10,9 C 83 % 1014,8 hPa 0,0 l/m 0,0 km/h N 8,1 C 10,9 C 0,0 km/h
11.10.2014 04:00 10,6 C 82 % 1014,4 hPa 0,0 l/m 0,0 km/h N 7,7 C 10,6 C 0,0 km/h
11.10.2014 05:00 11,5 C 80 % 1014,2 hPa 0,0 l/m 0,0 km/h N 8,2 C 11,5 C 0,0 km/h
11.10.2014 06:00 12,6 C 79 % 1013,7 hPa 0,0 l/m 0,0 km/h N 9,1 C 12,6 C 0,0 km/h
11.10.2014 07:00 13,3 C 79 % 1013,8 hPa 0,0 l/m 0,0 km/h N 9,7 C 13,3 C 0,4 km/h
11.10.2014 08:00 13,3 C 79 % 1014,2 hPa 0,0 l/m 0,0 km/h N 9,7 C 13,3 C 0,0 km/h
11.10.2014 09:00 13,6 C 78 % 1014,3 hPa 0,0 l/m 0,0 km/h N 9,9 C 13,6 C 0,0 km/h
11.10.2014 10:00 14,3 C 78 % 1014,4 hPa 0,0 l/m 0,0 km/h N 10,4 C 14,3 C 0,8 km/h
11.10.2014 11:00 14,7 C 77 % 1014,3 hPa 0,0 l/m 0,2 km/h N 10,7 C 14,7 C 3,2 km/h
11.10.2014 12:00 15,1 C 77 % 1014,4 hPa 0,0 l/m 0,6 km/h N 11,1 C 15,1 C 5,2 km/h
11.10.2014 13:00 15,8 C 80 % 1014,3 hPa 0,0 l/m 0,3 km/h N 12,3 C 15,8 C 3,6 km/h
11.10.2014 14:00 16,3 C 83 % 1014,0 hPa 0,0 l/m 0,4 km/h N 13,4 C 16,3 C 4,8 km/h
11.10.2014 15:00 16,7 C 84 % 1013,9 hPa 0,0 l/m 1,1 km/h N 14,0 C 16,7 C 5,6 km/h
11.10.2014 16:00 16,9 C 83 % 1013,7 hPa 0,0 l/m 1,1 km/h N 14,0 C 16,9 C 6,4 km/h
11.10.2014 17:00 16,6 C 83 % 1013,6 hPa 0,0 l/m 1,2 km/h N 13,7 C 16,6 C 6,4 km/h
11.10.2014 18:00 15,6 C 84 % 1013,8 hPa 0,0 l/m 0,3 km/h N 12,8 C 15,6 C 4,8 km/h
11.10.2014 19:00 14,6 C 85 % 1014,1 hPa 0,0 l/m 0,1 km/h N 12,0 C 14,6 C 1,6 km/h
11.10.2014 20:00 13,5 C 85 % 1014,4 hPa 0,0 l/m 0,0 km/h N 11,1 C 13,5 C 0,0 km/h
11.10.2014 21:00 12,5 C 85 % 1015,0 hPa 0,0 l/m 0,0 km/h N 10,0 C 12,5 C 0,0 km/h
11.10.2014 22:00 12,5 C 83 % 1015,5 hPa 0,0 l/m 0,1 km/h N 9,7 C 12,5 C 1,2 km/h
11.10.2014 23:00 12,7 C 82 % 1015,5 hPa 0,0 l/m 0,0 km/h N 9,7 C 12,7 C 0,0 km/h
12.10.2014 00:00 12,3 C 82 % 1015,4 hPa 0,0 l/m 0,1 km/h N 9,2 C 12,3 C 0,8 km/h
12.10.2014 01:00 11,7 C 82 % 1015,6 hPa 0,0 l/m 0,0 km/h N 8,7 C 11,7 C 0,8 km/h
12.10.2014 02:00 11,5 C 81 % 1015,7 hPa 0,0 l/m 0,0 km/h N 8,4 C 11,5 C 0,4 km/h
12.10.2014 03:00 11,4 C 81 % 1015,4 hPa 0,3 l/m 0,0 km/h N 8,2 C 11,4 C 0,0 km/h
12.10.2014 04:00 10,5 C 81 % 1015,4 hPa 0,0 l/m 0,0 km/h N 7,4 C 10,5 C 0,0 km/h
12.10.2014 05:00 10,1 C 81 % 1015,9 hPa 0,0 l/m 0,0 km/h N 7,0 C 10,1 C 0,0 km/h
12.10.2014 06:00 10,1 C 80 % 1016,0 hPa 0,0 l/m 0,0 km/h N 6,8 C 10,1 C 0,4 km/h
12.10.2014 07:00 10,5 C 80 % 1016,3 hPa 0,0 l/m 0,0 km/h N 7,1 C 10,5 C 0,0 km/h
12.10.2014 08:00 12,8 C 76 % 1016,6 hPa 0,0 l/m 0,1 km/h N 8,7 C 12,8 C 0,8 km/h
12.10.2014 09:00 15,6 C 75 % 1016,5 hPa 0,0 l/m 0,0 km/h N 11,2 C 15,6 C 0,8 km/h
12.10.2014 10:00 17,5 C 78 % 1016,5 hPa 0,0 l/m 0,2 km/h N 13,7 C 17,5 C 3,2 km/h
12.10.2014 11:00 19,5 C 82 % 1016,1 hPa 0,0 l/m 0,7 km/h N 16,3 C 19,5 C 6,0 km/h
12.10.2014 12:00 21,5 C 74 % 1015,7 hPa 0,0 l/m 0,6 km/h N 16,5 C 21,5 C 6,4 km/h
12.10.2014 13:00 21,8 C 71 % 1015,2 hPa 0,0 l/m 0,9 km/h N 16,3 C 21,8 C 6,4 km/h
12.10.2014 14:00 21,9 C 70 % 1014,8 hPa 0,0 l/m 0,6 km/h N 16,1 C 21,9 C 7,2 km/h
12.10.2014 15:00 21,5 C 70 % 1014,3 hPa 0,0 l/m 0,6 km/h N 15,8 C 21,5 C 6,4 km/h
12.10.2014 16:00 21,1 C 72 % 1013,9 hPa 0,0 l/m 0,4 km/h N 15,8 C 21,1 C 5,2 km/h
12.10.2014 17:00 20,2 C 75 % 1013,7 hPa 0,0 l/m 0,1 km/h N 15,6 C 20,2 C 2,8 km/h
12.10.2014 18:00 18,7 C 79 % 1013,6 hPa 0,0 l/m 0,0 km/h N 15,0 C 18,7 C 0,4 km/h
12.10.2014 19:00 16,9 C 81 % 1013,6 hPa 0,0 l/m 0,0 km/h N 13,6 C 16,9 C 0,0 km/h
12.10.2014 20:00 15,3 C 84 % 1013,6 hPa 0,0 l/m 0,0 km/h N 12,5 C 15,3 C 0,0 km/h
12.10.2014 21:00 14,4 C 84 % 1013,3 hPa 0,0 l/m 0,0 km/h N 11,8 C 14,4 C 0,0 km/h
12.10.2014 22:00 14,1 C 83 % 1013,0 hPa 0,0 l/m 0,0 km/h N 11,3 C 14,1 C 0,0 km/h
12.10.2014 23:00 13,5 C 82 % 1012,5 hPa 0,0 l/m 0,0 km/h N 10,5 C 13,5 C 0,0 km/h
Min-Datum _ 06.10.14 06.10.14 09.10.14 - 06.10.14 - 06.10.14 06.10.14 06.10.14
_ Min-Zeit 07:15 13:15 18:00 - 00:00 - 07:15 07:00 00:00
Minimum _ 5,9 C 65 % 1011,6 hPa - 0,0 km/h - 3,1 C 5,9 C 0,0 km/h
Max-Datum _ 12.10.14 06.10.14 06.10.14 09.10.14 07.10.14 - 09.10.14 12.10.14 07.10.14
_ Max-Zeit 13:30 00:00 00:00 06:15 15:30 - 17:30 13:30 11:30
Maximum _ 22,1 C 85 % 1018,5 hPa 0,3 l/m 11,3 km/h
N
- 16,9 C 22,1 C 30,6 km/h
N
Durchschnitt _ 14,3 C 80 % 1014,9 hPa #1,0 l/m 1,2 km/h N 10,8 C 14,2 C 4,8 km/h